sensor_id;sensor_type;location;lat;lon;timestamp;P1;durP1;ratioP1;P2;durP2;ratioP2
69985;SDS011;57328;52.054;5.294;2022-12-24T00:00:12;20.88;;;3.10;;
69985;SDS011;57328;52.054;5.294;2022-12-24T00:02:39;23.92;;;3.30;;
69985;SDS011;57328;52.054;5.294;2022-12-24T00:05:07;27.52;;;4.50;;
69985;SDS011;57328;52.054;5.294;2022-12-24T00:07:35;26.63;;;3.63;;
69985;SDS011;57328;52.054;5.294;2022-12-24T00:10:03;25.83;;;3.13;;
69985;SDS011;57328;52.054;5.294;2022-12-24T00:12:30;24.35;;;2.95;;
69985;SDS011;57328;52.054;5.294;2022-12-24T00:14:57;34.00;;;3.17;;
69985;SDS011;57328;52.054;5.294;2022-12-24T00:17:24;24.27;;;3.22;;
69985;SDS011;57328;52.054;5.294;2022-12-24T00:19:52;21.00;;;3.15;;
69985;SDS011;57328;52.054;5.294;2022-12-24T00:22:19;25.35;;;3.28;;
69985;SDS011;57328;52.054;5.294;2022-12-24T00:24:46;34.50;;;3.60;;
69985;SDS011;57328;52.054;5.294;2022-12-24T00:27:13;25.35;;;2.88;;
69985;SDS011;57328;52.054;5.294;2022-12-24T00:29:40;17.77;;;2.95;;
69985;SDS011;57328;52.054;5.294;2022-12-24T00:32:07;28.63;;;4.25;;
69985;SDS011;57328;52.054;5.294;2022-12-24T00:34:35;23.90;;;3.15;;
69985;SDS011;57328;52.054;5.294;2022-12-24T00:37:05;19.60;;;2.90;;
69985;SDS011;57328;52.054;5.294;2022-12-24T00:39:32;27.77;;;3.40;;
69985;SDS011;57328;52.054;5.294;2022-12-24T00:41:59;23.35;;;3.65;;
69985;SDS011;57328;52.054;5.294;2022-12-24T00:44:27;23.17;;;4.43;;
69985;SDS011;57328;52.054;5.294;2022-12-24T00:46:54;31.25;;;4.40;;
69985;SDS011;57328;52.054;5.294;2022-12-24T00:49:21;25.88;;;3.53;;
69985;SDS011;57328;52.054;5.294;2022-12-24T00:51:48;22.48;;;2.92;;
69985;SDS011;57328;52.054;5.294;2022-12-24T00:54:15;24.40;;;4.28;;
69985;SDS011;57328;52.054;5.294;2022-12-24T00:56:43;25.92;;;3.42;;
69985;SDS011;57328;52.054;5.294;2022-12-24T00:59:10;26.35;;;3.67;;
69985;SDS011;57328;52.054;5.294;2022-12-24T01:01:37;28.60;;;3.40;;
69985;SDS011;57328;52.054;5.294;2022-12-24T01:04:04;30.67;;;3.88;;
69985;SDS011;57328;52.054;5.294;2022-12-24T01:06:50;26.35;;;3.42;;
69985;SDS011;57328;52.054;5.294;2022-12-24T01:09:18;31.88;;;4.03;;
69985;SDS011;57328;52.054;5.294;2022-12-24T01:11:45;32.72;;;3.60;;
69985;SDS011;57328;52.054;5.294;2022-12-24T01:14:12;20.58;;;2.22;;
69985;SDS011;57328;52.054;5.294;2022-12-24T01:16:39;24.20;;;2.42;;
69985;SDS011;57328;52.054;5.294;2022-12-24T01:19:06;26.88;;;3.20;;
69985;SDS011;57328;52.054;5.294;2022-12-24T01:21:34;30.52;;;3.00;;
69985;SDS011;57328;52.054;5.294;2022-12-24T01:24:01;26.75;;;3.22;;
69985;SDS011;57328;52.054;5.294;2022-12-24T01:26:28;24.75;;;3.00;;
69985;SDS011;57328;52.054;5.294;2022-12-24T01:28:55;14.07;;;2.40;;
69985;SDS011;57328;52.054;5.294;2022-12-24T01:31:22;36.53;;;3.88;;
69985;SDS011;57328;52.054;5.294;2022-12-24T01:33:50;19.80;;;2.58;;
69985;SDS011;57328;52.054;5.294;2022-12-24T01:36:17;20.85;;;2.83;;
69985;SDS011;57328;52.054;5.294;2022-12-24T01:38:44;28.67;;;3.58;;
69985;SDS011;57328;52.054;5.294;2022-12-24T01:41:19;22.33;;;3.08;;
69985;SDS011;57328;52.054;5.294;2022-12-24T01:44:18;25.73;;;3.25;;
69985;SDS011;57328;52.054;5.294;2022-12-24T01:46:45;32.03;;;3.15;;
69985;SDS011;57328;52.054;5.294;2022-12-24T01:49:13;30.45;;;3.47;;
69985;SDS011;57328;52.054;5.294;2022-12-24T01:51:43;30.75;;;2.92;;
69985;SDS011;57328;52.054;5.294;2022-12-24T01:54:16;30.10;;;3.45;;
69985;SDS011;57328;52.054;5.294;2022-12-24T01:56:45;32.78;;;4.47;;
69985;SDS011;57328;52.054;5.294;2022-12-24T01:59:14;32.95;;;3.90;;
69985;SDS011;57328;52.054;5.294;2022-12-24T02:01:42;26.70;;;2.33;;
69985;SDS011;57328;52.054;5.294;2022-12-24T02:04:16;28.20;;;3.33;;
69985;SDS011;57328;52.054;5.294;2022-12-24T02:06:45;21.25;;;3.50;;
69985;SDS011;57328;52.054;5.294;2022-12-24T02:09:12;34.47;;;3.28;;
69985;SDS011;57328;52.054;5.294;2022-12-24T02:11:40;42.35;;;3.88;;
69985;SDS011;57328;52.054;5.294;2022-12-24T02:14:10;22.10;;;2.83;;
69985;SDS011;57328;52.054;5.294;2022-12-24T02:22:03;26.58;;;3.00;;
69985;SDS011;57328;52.054;5.294;2022-12-24T02:29:59;34.38;;;3.75;;
69985;SDS011;57328;52.054;5.294;2022-12-24T02:35:08;33.88;;;3.78;;
69985;SDS011;57328;52.054;5.294;2022-12-24T02:37:38;23.92;;;2.95;;
69985;SDS011;57328;52.054;5.294;2022-12-24T02:40:12;24.70;;;2.60;;
69985;SDS011;57328;52.054;5.294;2022-12-24T02:42:43;32.10;;;5.18;;
69985;SDS011;57328;52.054;5.294;2022-12-24T02:45:14;16.13;;;2.10;;
69985;SDS011;57328;52.054;5.294;2022-12-24T02:47:42;31.08;;;3.50;;
69985;SDS011;57328;52.054;5.294;2022-12-24T02:50:11;23.88;;;3.33;;
69985;SDS011;57328;52.054;5.294;2022-12-24T02:52:39;17.80;;;2.17;;
69985;SDS011;57328;52.054;5.294;2022-12-24T03:00:03;17.33;;;2.17;;
69985;SDS011;57328;52.054;5.294;2022-12-24T03:02:46;20.60;;;2.58;;
69985;SDS011;57328;52.054;5.294;2022-12-24T03:05:22;27.27;;;2.45;;
69985;SDS011;57328;52.054;5.294;2022-12-24T03:08:14;20.48;;;2.72;;
69985;SDS011;57328;52.054;5.294;2022-12-24T03:13:28;18.75;;;2.67;;
69985;SDS011;57328;52.054;5.294;2022-12-24T03:15:55;26.70;;;3.22;;
69985;SDS011;57328;52.054;5.294;2022-12-24T03:18:24;20.35;;;2.88;;
69985;SDS011;57328;52.054;5.294;2022-12-24T03:20:53;24.13;;;2.13;;
69985;SDS011;57328;52.054;5.294;2022-12-24T03:23:22;26.88;;;2.92;;
69985;SDS011;57328;52.054;5.294;2022-12-24T03:25:49;29.27;;;2.90;;
69985;SDS011;57328;52.054;5.294;2022-12-24T03:28:16;16.27;;;1.88;;
69985;SDS011;57328;52.054;5.294;2022-12-24T03:30:45;21.90;;;2.30;;
69985;SDS011;57328;52.054;5.294;2022-12-24T03:33:14;27.92;;;3.17;;
69985;SDS011;57328;52.054;5.294;2022-12-24T03:35:41;21.92;;;2.53;;
69985;SDS011;57328;52.054;5.294;2022-12-24T03:38:08;17.55;;;1.90;;
69985;SDS011;57328;52.054;5.294;2022-12-24T03:40:35;26.02;;;2.97;;
69985;SDS011;57328;52.054;5.294;2022-12-24T03:43:03;28.77;;;2.97;;
69985;SDS011;57328;52.054;5.294;2022-12-24T03:45:30;27.40;;;4.40;;
69985;SDS011;57328;52.054;5.294;2022-12-24T03:47:58;28.40;;;3.22;;
69985;SDS011;57328;52.054;5.294;2022-12-24T03:50:25;20.52;;;2.40;;
69985;SDS011;57328;52.054;5.294;2022-12-24T03:52:53;22.83;;;2.30;;
69985;SDS011;57328;52.054;5.294;2022-12-24T03:55:20;30.30;;;3.25;;
69985;SDS011;57328;52.054;5.294;2022-12-24T03:57:47;28.75;;;3.30;;
69985;SDS011;57328;52.054;5.294;2022-12-24T04:00:15;26.77;;;3.08;;
69985;SDS011;57328;52.054;5.294;2022-12-24T04:02:42;34.00;;;4.32;;
69985;SDS011;57328;52.054;5.294;2022-12-24T04:05:13;33.42;;;3.00;;
69985;SDS011;57328;52.054;5.294;2022-12-24T04:07:41;27.35;;;3.17;;
69985;SDS011;57328;52.054;5.294;2022-12-24T04:10:08;26.33;;;3.53;;
69985;SDS011;57328;52.054;5.294;2022-12-24T04:12:36;21.38;;;2.80;;
69985;SDS011;57328;52.054;5.294;2022-12-24T04:15:04;31.05;;;4.47;;
69985;SDS011;57328;52.054;5.294;2022-12-24T04:17:31;31.00;;;3.63;;
69985;SDS011;57328;52.054;5.294;2022-12-24T04:19:58;22.52;;;3.10;;
69985;SDS011;57328;52.054;5.294;2022-12-24T04:22:25;24.42;;;4.50;;
69985;SDS011;57328;52.054;5.294;2022-12-24T04:24:53;22.25;;;2.97;;
69985;SDS011;57328;52.054;5.294;2022-12-24T04:27:20;25.98;;;3.63;;
69985;SDS011;57328;52.054;5.294;2022-12-24T04:34:49;20.60;;;2.45;;
69985;SDS011;57328;52.054;5.294;2022-12-24T04:37:16;24.05;;;3.05;;
69985;SDS011;57328;52.054;5.294;2022-12-24T04:39:44;25.02;;;3.05;;
69985;SDS011;57328;52.054;5.294;2022-12-24T04:42:11;26.23;;;2.67;;
69985;SDS011;57328;52.054;5.294;2022-12-24T04:44:38;23.77;;;3.17;;
69985;SDS011;57328;52.054;5.294;2022-12-24T04:47:05;21.58;;;2.55;;
69985;SDS011;57328;52.054;5.294;2022-12-24T04:49:32;22.02;;;3.03;;
69985;SDS011;57328;52.054;5.294;2022-12-24T04:52:00;29.40;;;3.00;;
69985;SDS011;57328;52.054;5.294;2022-12-24T04:54:27;24.77;;;2.55;;
69985;SDS011;57328;52.054;5.294;2022-12-24T04:56:54;29.13;;;3.03;;
69985;SDS011;57328;52.054;5.294;2022-12-24T04:59:21;29.65;;;3.47;;
69985;SDS011;57328;52.054;5.294;2022-12-24T05:01:48;20.45;;;2.25;;
69985;SDS011;57328;52.054;5.294;2022-12-24T05:04:16;22.35;;;2.60;;
69985;SDS011;57328;52.054;5.294;2022-12-24T05:06:43;26.50;;;2.58;;
69985;SDS011;57328;52.054;5.294;2022-12-24T05:09:10;24.05;;;2.72;;
69985;SDS011;57328;52.054;5.294;2022-12-24T05:11:37;31.80;;;3.35;;
69985;SDS011;57328;52.054;5.294;2022-12-24T05:14:05;26.05;;;2.92;;
69985;SDS011;57328;52.054;5.294;2022-12-24T05:16:32;21.52;;;2.50;;
69985;SDS011;57328;52.054;5.294;2022-12-24T05:18:59;28.13;;;3.60;;
69985;SDS011;57328;52.054;5.294;2022-12-24T05:21:26;27.95;;;3.67;;
69985;SDS011;57328;52.054;5.294;2022-12-24T05:23:53;16.50;;;2.67;;
69985;SDS011;57328;52.054;5.294;2022-12-24T05:26:43;25.02;;;2.40;;
69985;SDS011;57328;52.054;5.294;2022-12-24T05:29:12;27.10;;;3.35;;
69985;SDS011;57328;52.054;5.294;2022-12-24T05:31:39;32.58;;;3.20;;
69985;SDS011;57328;52.054;5.294;2022-12-24T05:34:07;32.67;;;4.50;;
69985;SDS011;57328;52.054;5.294;2022-12-24T05:36:34;30.25;;;3.78;;
69985;SDS011;57328;52.054;5.294;2022-12-24T05:39:02;37.97;;;3.80;;
69985;SDS011;57328;52.054;5.294;2022-12-24T05:41:36;32.42;;;3.70;;
69985;SDS011;57328;52.054;5.294;2022-12-24T05:44:04;35.03;;;3.40;;
69985;SDS011;57328;52.054;5.294;2022-12-24T05:46:31;30.35;;;3.30;;
69985;SDS011;57328;52.054;5.294;2022-12-24T05:48:58;32.85;;;3.22;;
69985;SDS011;57328;52.054;5.294;2022-12-24T05:51:25;29.75;;;3.40;;
69985;SDS011;57328;52.054;5.294;2022-12-24T05:53:52;35.40;;;4.40;;
69985;SDS011;57328;52.054;5.294;2022-12-24T05:56:21;23.85;;;2.33;;
69985;SDS011;57328;52.054;5.294;2022-12-24T05:58:48;32.65;;;4.00;;
69985;SDS011;57328;52.054;5.294;2022-12-24T06:01:16;32.78;;;3.63;;
69985;SDS011;57328;52.054;5.294;2022-12-24T06:03:43;31.77;;;3.22;;
69985;SDS011;57328;52.054;5.294;2022-12-24T06:06:12;30.52;;;4.22;;
69985;SDS011;57328;52.054;5.294;2022-12-24T06:08:40;38.35;;;3.45;;
69985;SDS011;57328;52.054;5.294;2022-12-24T06:11:08;30.55;;;3.63;;
69985;SDS011;57328;52.054;5.294;2022-12-24T06:13:36;40.30;;;4.45;;
69985;SDS011;57328;52.054;5.294;2022-12-24T06:16:04;29.10;;;3.85;;
69985;SDS011;57328;52.054;5.294;2022-12-24T06:18:32;41.53;;;3.65;;
69985;SDS011;57328;52.054;5.294;2022-12-24T06:21:00;35.80;;;4.00;;
69985;SDS011;57328;52.054;5.294;2022-12-24T06:23:28;26.10;;;3.55;;
69985;SDS011;57328;52.054;5.294;2022-12-24T06:25:56;44.95;;;4.88;;
69985;SDS011;57328;52.054;5.294;2022-12-24T06:28:29;37.92;;;4.20;;
69985;SDS011;57328;52.054;5.294;2022-12-24T06:30:57;38.85;;;3.80;;
69985;SDS011;57328;52.054;5.294;2022-12-24T06:33:29;34.63;;;4.07;;
69985;SDS011;57328;52.054;5.294;2022-12-24T06:35:56;38.22;;;3.70;;
69985;SDS011;57328;52.054;5.294;2022-12-24T06:38:23;34.05;;;3.88;;
69985;SDS011;57328;52.054;5.294;2022-12-24T06:40:51;45.33;;;4.50;;
69985;SDS011;57328;52.054;5.294;2022-12-24T06:43:18;39.25;;;4.30;;
69985;SDS011;57328;52.054;5.294;2022-12-24T06:45:46;34.70;;;3.58;;
69985;SDS011;57328;52.054;5.294;2022-12-24T06:48:14;41.60;;;4.63;;
69985;SDS011;57328;52.054;5.294;2022-12-24T06:50:41;35.17;;;3.65;;
69985;SDS011;57328;52.054;5.294;2022-12-24T06:53:09;30.80;;;4.53;;
69985;SDS011;57328;52.054;5.294;2022-12-24T06:55:36;29.15;;;3.90;;
69985;SDS011;57328;52.054;5.294;2022-12-24T06:58:03;29.27;;;3.72;;
69985;SDS011;57328;52.054;5.294;2022-12-24T07:00:31;40.67;;;4.75;;
69985;SDS011;57328;52.054;5.294;2022-12-24T07:02:58;36.42;;;4.28;;
69985;SDS011;57328;52.054;5.294;2022-12-24T07:05:25;40.28;;;5.78;;
69985;SDS011;57328;52.054;5.294;2022-12-24T07:07:53;32.28;;;3.58;;
69985;SDS011;57328;52.054;5.294;2022-12-24T07:10:20;29.77;;;3.53;;
69985;SDS011;57328;52.054;5.294;2022-12-24T07:12:48;42.55;;;4.38;;
69985;SDS011;57328;52.054;5.294;2022-12-24T07:15:15;37.92;;;3.60;;
69985;SDS011;57328;52.054;5.294;2022-12-24T07:17:42;38.08;;;4.32;;
69985;SDS011;57328;52.054;5.294;2022-12-24T07:20:11;35.17;;;3.47;;
69985;SDS011;57328;52.054;5.294;2022-12-24T07:22:40;36.88;;;3.72;;
69985;SDS011;57328;52.054;5.294;2022-12-24T07:25:07;41.17;;;3.83;;
69985;SDS011;57328;52.054;5.294;2022-12-24T07:27:35;26.00;;;4.57;;
69985;SDS011;57328;52.054;5.294;2022-12-24T07:30:02;42.75;;;5.00;;
69985;SDS011;57328;52.054;5.294;2022-12-24T07:32:30;42.47;;;4.05;;
69985;SDS011;57328;52.054;5.294;2022-12-24T07:34:58;41.33;;;4.45;;
69985;SDS011;57328;52.054;5.294;2022-12-24T07:37:25;32.97;;;3.05;;
69985;SDS011;57328;52.054;5.294;2022-12-24T07:39:52;27.65;;;3.60;;
69985;SDS011;57328;52.054;5.294;2022-12-24T07:42:19;35.95;;;3.70;;
69985;SDS011;57328;52.054;5.294;2022-12-24T07:44:47;40.20;;;4.13;;
69985;SDS011;57328;52.054;5.294;2022-12-24T07:47:14;36.45;;;2.97;;
69985;SDS011;57328;52.054;5.294;2022-12-24T07:49:41;33.63;;;4.18;;
69985;SDS011;57328;52.054;5.294;2022-12-24T07:52:08;42.00;;;3.92;;
69985;SDS011;57328;52.054;5.294;2022-12-24T07:54:36;33.72;;;3.60;;
69985;SDS011;57328;52.054;5.294;2022-12-24T07:57:03;25.50;;;3.97;;
69985;SDS011;57328;52.054;5.294;2022-12-24T07:59:30;29.40;;;3.20;;
69985;SDS011;57328;52.054;5.294;2022-12-24T08:01:57;32.80;;;3.75;;
69985;SDS011;57328;52.054;5.294;2022-12-24T08:04:24;25.63;;;3.33;;
69985;SDS011;57328;52.054;5.294;2022-12-24T08:06:52;31.10;;;3.70;;
69985;SDS011;57328;52.054;5.294;2022-12-24T08:09:19;31.20;;;3.63;;
69985;SDS011;57328;52.054;5.294;2022-12-24T08:11:46;34.92;;;4.30;;
69985;SDS011;57328;52.054;5.294;2022-12-24T08:14:17;34.40;;;3.92;;
69985;SDS011;57328;52.054;5.294;2022-12-24T08:16:45;41.20;;;4.80;;
69985;SDS011;57328;52.054;5.294;2022-12-24T08:19:12;31.80;;;4.28;;
69985;SDS011;57328;52.054;5.294;2022-12-24T08:21:39;28.80;;;4.05;;
69985;SDS011;57328;52.054;5.294;2022-12-24T08:24:06;31.67;;;3.42;;
69985;SDS011;57328;52.054;5.294;2022-12-24T08:26:34;32.97;;;3.88;;
69985;SDS011;57328;52.054;5.294;2022-12-24T08:29:04;33.97;;;4.38;;
69985;SDS011;57328;52.054;5.294;2022-12-24T08:31:32;32.75;;;4.85;;
69985;SDS011;57328;52.054;5.294;2022-12-24T08:34:05;33.53;;;3.35;;
69985;SDS011;57328;52.054;5.294;2022-12-24T08:36:33;29.05;;;3.40;;
69985;SDS011;57328;52.054;5.294;2022-12-24T08:39:00;29.80;;;4.07;;
69985;SDS011;57328;52.054;5.294;2022-12-24T08:41:29;30.50;;;3.60;;
69985;SDS011;57328;52.054;5.294;2022-12-24T08:43:57;30.42;;;3.30;;
69985;SDS011;57328;52.054;5.294;2022-12-24T08:46:24;30.27;;;4.18;;
69985;SDS011;57328;52.054;5.294;2022-12-24T08:48:51;33.05;;;3.88;;
69985;SDS011;57328;52.054;5.294;2022-12-24T08:51:19;28.15;;;3.83;;
69985;SDS011;57328;52.054;5.294;2022-12-24T08:53:46;31.95;;;3.58;;
69985;SDS011;57328;52.054;5.294;2022-12-24T08:56:13;27.50;;;4.00;;
69985;SDS011;57328;52.054;5.294;2022-12-24T08:58:41;29.67;;;3.85;;
69985;SDS011;57328;52.054;5.294;2022-12-24T09:01:17;28.48;;;3.75;;
69985;SDS011;57328;52.054;5.294;2022-12-24T09:03:45;32.88;;;4.28;;
69985;SDS011;57328;52.054;5.294;2022-12-24T09:06:13;34.92;;;3.88;;
69985;SDS011;57328;52.054;5.294;2022-12-24T09:08:41;31.67;;;4.53;;
69985;SDS011;57328;52.054;5.294;2022-12-24T09:11:10;32.33;;;3.67;;
69985;SDS011;57328;52.054;5.294;2022-12-24T09:13:37;23.02;;;3.70;;
69985;SDS011;57328;52.054;5.294;2022-12-24T09:16:05;30.85;;;4.03;;
69985;SDS011;57328;52.054;5.294;2022-12-24T09:18:32;27.80;;;3.42;;
69985;SDS011;57328;52.054;5.294;2022-12-24T09:21:01;31.60;;;3.55;;
69985;SDS011;57328;52.054;5.294;2022-12-24T09:23:28;27.27;;;4.18;;
69985;SDS011;57328;52.054;5.294;2022-12-24T09:25:56;29.20;;;3.58;;
69985;SDS011;57328;52.054;5.294;2022-12-24T09:28:23;31.38;;;3.72;;
69985;SDS011;57328;52.054;5.294;2022-12-24T09:31:00;29.55;;;3.42;;
69985;SDS011;57328;52.054;5.294;2022-12-24T09:33:28;34.47;;;4.75;;
69985;SDS011;57328;52.054;5.294;2022-12-24T09:35:56;33.13;;;4.03;;
69985;SDS011;57328;52.054;5.294;2022-12-24T09:38:23;35.40;;;3.60;;
69985;SDS011;57328;52.054;5.294;2022-12-24T09:40:50;36.38;;;4.55;;
69985;SDS011;57328;52.054;5.294;2022-12-24T09:46:48;26.83;;;3.53;;
69985;SDS011;57328;52.054;5.294;2022-12-24T09:49:17;27.77;;;3.30;;
69985;SDS011;57328;52.054;5.294;2022-12-24T09:51:44;31.02;;;3.80;;
69985;SDS011;57328;52.054;5.294;2022-12-24T09:56:48;30.20;;;3.70;;
69985;SDS011;57328;52.054;5.294;2022-12-24T10:01:42;28.88;;;4.40;;
69985;SDS011;57328;52.054;5.294;2022-12-24T10:04:14;25.30;;;3.60;;
69985;SDS011;57328;52.054;5.294;2022-12-24T10:06:51;29.80;;;4.10;;
69985;SDS011;57328;52.054;5.294;2022-12-24T10:09:23;37.13;;;4.18;;
69985;SDS011;57328;52.054;5.294;2022-12-24T10:11:59;21.63;;;3.30;;
69985;SDS011;57328;52.054;5.294;2022-12-24T10:19:45;29.77;;;3.78;;
69985;SDS011;57328;52.054;5.294;2022-12-24T10:22:23;32.50;;;4.15;;
69985;SDS011;57328;52.054;5.294;2022-12-24T10:24:57;27.92;;;3.30;;
69985;SDS011;57328;52.054;5.294;2022-12-24T10:27:27;24.38;;;3.10;;
69985;SDS011;57328;52.054;5.294;2022-12-24T10:29:58;26.95;;;4.13;;
69985;SDS011;57328;52.054;5.294;2022-12-24T10:32:30;28.70;;;3.50;;
69985;SDS011;57328;52.054;5.294;2022-12-24T10:34:59;22.67;;;3.58;;
69985;SDS011;57328;52.054;5.294;2022-12-24T10:37:29;25.88;;;3.92;;
69985;SDS011;57328;52.054;5.294;2022-12-24T10:39:57;31.92;;;4.47;;
69985;SDS011;57328;52.054;5.294;2022-12-24T10:42:26;28.33;;;3.88;;
69985;SDS011;57328;52.054;5.294;2022-12-24T10:45:00;29.23;;;4.07;;
69985;SDS011;57328;52.054;5.294;2022-12-24T10:47:28;29.63;;;3.28;;
69985;SDS011;57328;52.054;5.294;2022-12-24T10:50:04;27.65;;;3.75;;
69985;SDS011;57328;52.054;5.294;2022-12-24T10:52:33;31.20;;;3.53;;
69985;SDS011;57328;52.054;5.294;2022-12-24T10:57:28;27.45;;;3.75;;
69985;SDS011;57328;52.054;5.294;2022-12-24T10:59:56;35.15;;;4.32;;
69985;SDS011;57328;52.054;5.294;2022-12-24T11:04:54;26.95;;;3.70;;
69985;SDS011;57328;52.054;5.294;2022-12-24T11:07:22;39.00;;;5.10;;
69985;SDS011;57328;52.054;5.294;2022-12-24T11:09:54;31.52;;;3.72;;
69985;SDS011;57328;52.054;5.294;2022-12-24T11:12:22;24.85;;;3.65;;
69985;SDS011;57328;52.054;5.294;2022-12-24T11:17:27;30.70;;;3.47;;
69985;SDS011;57328;52.054;5.294;2022-12-24T11:19:54;22.17;;;3.47;;
69985;SDS011;57328;52.054;5.294;2022-12-24T11:22:22;24.05;;;4.18;;
69985;SDS011;57328;52.054;5.294;2022-12-24T11:27:28;23.17;;;4.20;;
69985;SDS011;57328;52.054;5.294;2022-12-24T11:30:38;28.23;;;4.40;;
69985;SDS011;57328;52.054;5.294;2022-12-24T11:32:47;30.92;;;3.72;;
69985;SDS011;57328;52.054;5.294;2022-12-24T11:37:47;19.75;;;2.92;;
69985;SDS011;57328;52.054;5.294;2022-12-24T11:40:19;20.75;;;3.30;;
69985;SDS011;57328;52.054;5.294;2022-12-24T11:42:46;27.83;;;3.72;;
69985;SDS011;57328;52.054;5.294;2022-12-24T11:45:20;28.92;;;3.63;;
69985;SDS011;57328;52.054;5.294;2022-12-24T11:47:48;26.25;;;3.42;;
69985;SDS011;57328;52.054;5.294;2022-12-24T11:50:26;22.05;;;3.65;;
69985;SDS011;57328;52.054;5.294;2022-12-24T11:57:59;20.20;;;3.20;;
69985;SDS011;57328;52.054;5.294;2022-12-24T12:00:29;26.15;;;4.38;;
69985;SDS011;57328;52.054;5.294;2022-12-24T12:02:57;25.83;;;3.28;;
69985;SDS011;57328;52.054;5.294;2022-12-24T12:05:27;24.90;;;3.63;;
69985;SDS011;57328;52.054;5.294;2022-12-24T12:08:16;29.80;;;3.25;;
69985;SDS011;57328;52.054;5.294;2022-12-24T12:10:44;27.58;;;3.30;;
69985;SDS011;57328;52.054;5.294;2022-12-24T12:13:13;29.77;;;3.75;;
69985;SDS011;57328;52.054;5.294;2022-12-24T12:15:46;27.30;;;3.20;;
69985;SDS011;57328;52.054;5.294;2022-12-24T12:18:14;20.67;;;3.33;;
69985;SDS011;57328;52.054;5.294;2022-12-24T12:20:43;22.25;;;3.45;;
69985;SDS011;57328;52.054;5.294;2022-12-24T12:23:28;30.23;;;3.70;;
69985;SDS011;57328;52.054;5.294;2022-12-24T12:31:19;24.30;;;3.60;;
69985;SDS011;57328;52.054;5.294;2022-12-24T12:33:46;24.55;;;2.90;;
69985;SDS011;57328;52.054;5.294;2022-12-24T12:36:16;21.40;;;3.08;;
69985;SDS011;57328;52.054;5.294;2022-12-24T12:38:44;27.00;;;3.35;;
69985;SDS011;57328;52.054;5.294;2022-12-24T12:41:23;20.13;;;3.10;;
69985;SDS011;57328;52.054;5.294;2022-12-24T12:49:15;29.98;;;3.53;;
69985;SDS011;57328;52.054;5.294;2022-12-24T12:51:52;21.73;;;3.13;;
69985;SDS011;57328;52.054;5.294;2022-12-24T12:57:02;23.20;;;3.50;;
69985;SDS011;57328;52.054;5.294;2022-12-24T12:59:33;18.65;;;2.80;;
69985;SDS011;57328;52.054;5.294;2022-12-24T13:02:20;21.98;;;2.88;;
69985;SDS011;57328;52.054;5.294;2022-12-24T13:17:47;28.42;;;5.88;;
69985;SDS011;57328;52.054;5.294;2022-12-24T13:20:27;22.67;;;2.90;;
69985;SDS011;57328;52.054;5.294;2022-12-24T13:25:25;22.10;;;3.20;;
69985;SDS011;57328;52.054;5.294;2022-12-24T13:27:53;21.02;;;3.60;;
69985;SDS011;57328;52.054;5.294;2022-12-24T13:30:39;23.45;;;2.65;;
69985;SDS011;57328;52.054;5.294;2022-12-24T13:33:10;20.02;;;3.40;;
69985;SDS011;57328;52.054;5.294;2022-12-24T13:36:02;19.85;;;3.30;;
69985;SDS011;57328;52.054;5.294;2022-12-24T13:38:34;20.98;;;2.85;;
69985;SDS011;57328;52.054;5.294;2022-12-24T13:44:34;17.65;;;3.60;;
69985;SDS011;57328;52.054;5.294;2022-12-24T13:46:53;22.38;;;3.35;;
69985;SDS011;57328;52.054;5.294;2022-12-24T13:49:38;28.02;;;3.30;;
69985;SDS011;57328;52.054;5.294;2022-12-24T13:54:33;27.50;;;3.40;;
69985;SDS011;57328;52.054;5.294;2022-12-24T13:57:01;16.35;;;2.58;;
69985;SDS011;57328;52.054;5.294;2022-12-24T13:59:52;21.63;;;3.05;;
69985;SDS011;57328;52.054;5.294;2022-12-24T14:02:21;16.23;;;2.53;;
69985;SDS011;57328;52.054;5.294;2022-12-24T14:04:49;24.75;;;2.70;;
69985;SDS011;57328;52.054;5.294;2022-12-24T14:07:17;24.27;;;3.10;;
69985;SDS011;57328;52.054;5.294;2022-12-24T14:09:47;18.77;;;2.50;;
69985;SDS011;57328;52.054;5.294;2022-12-24T14:12:28;25.58;;;3.03;;
69985;SDS011;57328;52.054;5.294;2022-12-24T14:14:56;25.83;;;3.90;;
69985;SDS011;57328;52.054;5.294;2022-12-24T14:17:24;17.73;;;2.90;;
69985;SDS011;57328;52.054;5.294;2022-12-24T14:22:24;30.58;;;6.95;;
69985;SDS011;57328;52.054;5.294;2022-12-24T14:24:54;23.95;;;4.00;;
69985;SDS011;57328;52.054;5.294;2022-12-24T14:30:07;28.60;;;4.22;;
69985;SDS011;57328;52.054;5.294;2022-12-24T14:32:35;29.08;;;5.28;;
69985;SDS011;57328;52.054;5.294;2022-12-24T14:37:36;20.90;;;3.60;;
69985;SDS011;57328;52.054;5.294;2022-12-24T14:40:04;21.55;;;4.55;;
69985;SDS011;57328;52.054;5.294;2022-12-24T14:42:44;26.65;;;4.78;;
69985;SDS011;57328;52.054;5.294;2022-12-24T14:47:56;25.77;;;3.92;;
69985;SDS011;57328;52.054;5.294;2022-12-24T14:55:41;23.77;;;3.08;;
69985;SDS011;57328;52.054;5.294;2022-12-24T15:01:40;22.90;;;2.95;;
69985;SDS011;57328;52.054;5.294;2022-12-24T15:03:42;22.98;;;3.35;;
69985;SDS011;57328;52.054;5.294;2022-12-24T15:06:10;23.20;;;2.95;;
69985;SDS011;57328;52.054;5.294;2022-12-24T15:08:39;25.98;;;3.65;;
69985;SDS011;57328;52.054;5.294;2022-12-24T15:11:13;22.27;;;3.53;;
69985;SDS011;57328;52.054;5.294;2022-12-24T15:13:42;25.25;;;3.35;;
69985;SDS011;57328;52.054;5.294;2022-12-24T15:16:10;28.20;;;3.05;;
69985;SDS011;57328;52.054;5.294;2022-12-24T15:18:41;20.55;;;2.78;;
69985;SDS011;57328;52.054;5.294;2022-12-24T15:21:13;23.83;;;3.15;;
69985;SDS011;57328;52.054;5.294;2022-12-24T15:23:44;24.45;;;4.38;;
69985;SDS011;57328;52.054;5.294;2022-12-24T15:28:42;34.05;;;4.25;;
69985;SDS011;57328;52.054;5.294;2022-12-24T15:31:11;26.45;;;3.70;;
69985;SDS011;57328;52.054;5.294;2022-12-24T15:33:39;23.45;;;3.30;;
69985;SDS011;57328;52.054;5.294;2022-12-24T15:36:06;22.98;;;2.95;;
69985;SDS011;57328;52.054;5.294;2022-12-24T15:38:35;31.02;;;3.85;;
69985;SDS011;57328;52.054;5.294;2022-12-24T15:41:19;22.60;;;3.63;;
69985;SDS011;57328;52.054;5.294;2022-12-24T15:43:47;27.50;;;4.38;;
69985;SDS011;57328;52.054;5.294;2022-12-24T15:46:18;32.75;;;4.18;;
69985;SDS011;57328;52.054;5.294;2022-12-24T15:48:45;29.63;;;4.38;;
69985;SDS011;57328;52.054;5.294;2022-12-24T15:51:19;29.55;;;5.65;;
69985;SDS011;57328;52.054;5.294;2022-12-24T15:53:47;32.92;;;7.45;;
69985;SDS011;57328;52.054;5.294;2022-12-24T15:56:29;45.10;;;11.18;;
69985;SDS011;57328;52.054;5.294;2022-12-24T16:01:45;44.40;;;11.80;;
69985;SDS011;57328;52.054;5.294;2022-12-24T16:04:26;26.40;;;9.10;;
69985;SDS011;57328;52.054;5.294;2022-12-24T16:06:55;35.47;;;8.20;;
69985;SDS011;57328;52.054;5.294;2022-12-24T16:09:31;37.80;;;7.53;;
69985;SDS011;57328;52.054;5.294;2022-12-24T16:11:58;34.75;;;7.20;;
69985;SDS011;57328;52.054;5.294;2022-12-24T16:14:29;30.05;;;5.78;;
69985;SDS011;57328;52.054;5.294;2022-12-24T16:16:57;29.60;;;6.22;;
69985;SDS011;57328;52.054;5.294;2022-12-24T16:19:26;40.55;;;9.15;;
69985;SDS011;57328;52.054;5.294;2022-12-24T16:22:00;29.70;;;6.97;;
69985;SDS011;57328;52.054;5.294;2022-12-24T16:24:46;32.55;;;10.27;;
69985;SDS011;57328;52.054;5.294;2022-12-24T16:27:13;155.68;;;46.40;;
69985;SDS011;57328;52.054;5.294;2022-12-24T16:29:41;233.10;;;65.47;;
69985;SDS011;57328;52.054;5.294;2022-12-24T16:32:22;44.92;;;12.32;;
69985;SDS011;57328;52.054;5.294;2022-12-24T16:34:54;47.20;;;14.73;;
69985;SDS011;57328;52.054;5.294;2022-12-24T16:37:21;31.40;;;8.57;;
69985;SDS011;57328;52.054;5.294;2022-12-24T16:39:48;41.08;;;9.00;;
69985;SDS011;57328;52.054;5.294;2022-12-24T16:42:15;39.20;;;9.27;;